createdAt,value
2023-05-06T00:01:56.238Z,11.70
2023-05-06T00:04:24.608Z,11.70
2023-05-06T00:06:52.870Z,11.60
2023-05-06T00:09:21.176Z,11.60
2023-05-06T00:11:49.174Z,11.60
2023-05-06T00:14:17.770Z,11.60
2023-05-06T00:16:46.175Z,11.60
2023-05-06T00:19:15.632Z,11.60
2023-05-06T00:21:43.560Z,11.60
2023-05-06T00:24:12.237Z,11.50
2023-05-06T00:26:40.183Z,11.60
2023-05-06T00:29:08.269Z,11.60
2023-05-06T00:31:36.383Z,11.60
2023-05-06T00:34:04.790Z,11.50
2023-05-06T00:36:34.394Z,11.40
2023-05-06T00:39:03.124Z,11.40
2023-05-06T00:41:33.001Z,11.30
2023-05-06T00:44:01.035Z,11.30
2023-05-06T00:46:29.312Z,11.20
2023-05-06T00:48:57.415Z,11.20
2023-05-06T00:51:25.584Z,11.10
2023-05-06T00:53:55.070Z,11.10
2023-05-06T00:56:23.463Z,11.10
2023-05-06T00:58:51.829Z,11.10
2023-05-06T01:01:19.973Z,11.10
2023-05-06T01:03:48.374Z,11.10
2023-05-06T01:06:25.029Z,11.10
2023-05-06T01:09:08.820Z,11.10
2023-05-06T01:11:43.737Z,11.00
2023-05-06T01:14:22.714Z,11.00
2023-05-06T01:16:56.067Z,10.90
2023-05-06T01:19:38.902Z,11.00
2023-05-06T01:22:07.818Z,11.00
2023-05-06T01:24:38.623Z,10.90
2023-05-06T01:27:06.953Z,10.90
2023-05-06T01:29:36.958Z,10.90
2023-05-06T01:32:22.844Z,10.90
2023-05-06T01:34:57.630Z,10.90
2023-05-06T01:37:35.913Z,10.90
2023-05-06T01:40:07.770Z,10.80
2023-05-06T01:42:37.381Z,10.80
2023-05-06T01:45:08.267Z,10.80
2023-05-06T01:47:37.785Z,10.80
2023-05-06T01:50:06.539Z,10.80
2023-05-06T01:52:34.615Z,10.80
2023-05-06T01:55:02.655Z,10.80
2023-05-06T01:57:32.104Z,10.80
2023-05-06T02:00:00.175Z,10.70
2023-05-06T02:02:28.202Z,10.70
2023-05-06T02:04:56.508Z,10.70
2023-05-06T02:07:24.713Z,10.60
2023-05-06T02:09:52.720Z,10.60
2023-05-06T02:12:20.734Z,10.60
2023-05-06T02:14:50.079Z,10.60
2023-05-06T02:17:18.146Z,10.60
2023-05-06T02:19:46.141Z,10.50
2023-05-06T02:22:14.135Z,10.50
2023-05-06T02:24:42.113Z,10.50
2023-05-06T02:27:10.160Z,10.50
2023-05-06T02:29:38.160Z,10.50
2023-05-06T02:32:07.770Z,10.50
2023-05-06T02:34:35.802Z,10.50
2023-05-06T02:37:03.825Z,10.50
2023-05-06T02:39:31.826Z,10.60
2023-05-06T02:41:59.859Z,10.60
2023-05-06T02:44:27.912Z,10.60
2023-05-06T02:46:55.972Z,10.60
2023-05-06T02:49:25.382Z,10.60
2023-05-06T02:51:53.360Z,10.70
2023-05-06T02:54:21.309Z,10.70
2023-05-06T02:56:49.389Z,10.60
2023-05-06T02:59:17.912Z,10.70
2023-05-06T03:01:46.170Z,10.70
2023-05-06T03:04:14.436Z,10.70
2023-05-06T03:06:44.076Z,10.70
2023-05-06T03:09:12.068Z,10.70
2023-05-06T03:11:40.077Z,10.80
2023-05-06T03:14:08.083Z,10.80
2023-05-06T03:16:36.080Z,10.70
2023-05-06T03:19:04.935Z,10.80
2023-05-06T03:21:33.355Z,10.80
2023-05-06T03:24:02.769Z,10.80
2023-05-06T03:26:30.751Z,10.70
2023-05-06T03:28:59.182Z,10.80
2023-05-06T03:31:27.233Z,10.80
2023-05-06T03:33:55.322Z,10.80
2023-05-06T03:36:26.037Z,10.80
2023-05-06T03:38:54.075Z,10.70
2023-05-06T03:41:23.469Z,10.70
2023-05-06T03:43:52.423Z,10.60
2023-05-06T03:46:20.424Z,10.60
2023-05-06T03:48:48.426Z,10.60
2023-05-06T03:51:16.593Z,10.60
2023-05-06T03:53:44.589Z,10.60
2023-05-06T03:56:12.628Z,10.50
2023-05-06T03:58:42.040Z,10.50
2023-05-06T04:01:09.984Z,10.60
2023-05-06T04:03:38.081Z,10.60
2023-05-06T04:06:07.052Z,10.60
2023-05-06T04:08:35.096Z,10.60
2023-05-06T04:11:05.829Z,10.60
2023-05-06T04:13:34.035Z,10.60
2023-05-06T04:16:04.056Z,10.60
2023-05-06T04:18:32.889Z,10.70
2023-05-06T04:21:01.044Z,10.70
2023-05-06T04:23:29.199Z,10.80
2023-05-06T04:25:57.953Z,10.80
2023-05-06T04:28:26.103Z,10.90
2023-05-06T04:30:54.068Z,10.90
2023-05-06T04:33:25.143Z,11.00
2023-05-06T04:35:54.774Z,11.00
2023-05-06T04:38:25.640Z,11.00
2023-05-06T04:40:53.804Z,11.10
2023-05-06T04:43:21.892Z,11.10
2023-05-06T04:45:50.379Z,11.10
2023-05-06T04:48:19.513Z,11.10
2023-05-06T04:50:48.974Z,11.10
2023-05-06T04:53:17.680Z,11.10
2023-05-06T04:55:45.767Z,11.10
2023-05-06T04:58:14.549Z,11.10
2023-05-06T05:00:42.751Z,11.20
2023-05-06T05:03:10.848Z,11.20
2023-05-06T05:05:38.942Z,11.20
2023-05-06T05:08:08.494Z,11.30
2023-05-06T05:10:36.703Z,11.40
2023-05-06T05:13:04.698Z,11.50
2023-05-06T05:15:32.734Z,11.50
2023-05-06T05:18:01.359Z,11.60
2023-05-06T05:20:29.476Z,11.80
2023-05-06T05:22:57.513Z,11.90
2023-05-06T05:25:27.554Z,12.00
2023-05-06T05:27:55.604Z,12.10
2023-05-06T05:30:23.810Z,12.30
2023-05-06T05:32:52.192Z,12.40
2023-05-06T05:35:20.767Z,12.50
2023-05-06T05:37:49.265Z,12.70
2023-05-06T05:40:17.382Z,12.80
2023-05-06T05:42:46.746Z,12.90
2023-05-06T05:45:14.750Z,13.00
2023-05-06T05:47:42.842Z,13.20
2023-05-06T05:50:11.556Z,13.40
2023-05-06T05:52:39.709Z,13.70
2023-05-06T05:55:08.991Z,13.70
2023-05-06T05:57:37.238Z,13.80
2023-05-06T06:00:09.378Z,13.70
2023-05-06T06:02:38.325Z,13.70
2023-05-06T06:05:07.403Z,13.60
2023-05-06T06:07:35.577Z,13.70
2023-05-06T06:10:04.517Z,13.70
2023-05-06T06:12:32.574Z,13.70
2023-05-06T06:15:01.011Z,13.80
2023-05-06T06:17:30.525Z,13.80
2023-05-06T06:19:59.848Z,13.70
2023-05-06T06:22:28.517Z,13.60
2023-05-06T06:24:56.593Z,13.70
2023-05-06T06:27:25.283Z,14.40
2023-05-06T06:29:53.382Z,15.40
2023-05-06T06:32:21.592Z,16.60
2023-05-06T06:34:51.065Z,17.80
2023-05-06T06:37:19.120Z,18.00
2023-05-06T06:39:47.191Z,17.50
2023-05-06T06:42:15.528Z,17.00
2023-05-06T06:44:43.753Z,16.60
2023-05-06T06:47:12.326Z,16.30
2023-05-06T06:49:40.524Z,16.20
2023-05-06T06:52:10.309Z,16.00
2023-05-06T06:54:39.096Z,15.90
2023-05-06T06:57:07.903Z,15.80
2023-05-06T06:59:36.236Z,15.70
2023-05-06T07:02:04.545Z,15.70
2023-05-06T07:04:32.581Z,15.60
2023-05-06T07:07:00.656Z,15.60
2023-05-06T07:09:30.078Z,15.50
2023-05-06T07:11:58.568Z,15.20
2023-05-06T07:14:26.873Z,15.20
2023-05-06T07:16:54.991Z,15.10
2023-05-06T07:19:23.052Z,15.10
2023-05-06T07:21:51.092Z,15.00
2023-05-06T07:24:19.159Z,15.00
2023-05-06T07:26:48.782Z,15.00
2023-05-06T07:29:16.922Z,15.10
2023-05-06T07:31:45.066Z,15.10
2023-05-06T07:34:13.114Z,15.30
2023-05-06T07:36:43.152Z,15.60
2023-05-06T07:39:11.678Z,16.20
2023-05-06T07:41:39.753Z,16.90
2023-05-06T07:44:09.140Z,17.90
2023-05-06T07:46:37.161Z,18.30
2023-05-06T07:49:05.242Z,18.70
2023-05-06T07:51:33.270Z,18.90
2023-05-06T07:54:02.636Z,19.00
2023-05-06T07:56:32.038Z,18.70
2023-05-06T07:59:00.488Z,18.40
2023-05-06T08:01:30.670Z,17.90
2023-05-06T08:04:00.541Z,17.40
2023-05-06T08:06:28.866Z,17.20
2023-05-06T08:08:56.948Z,17.10
2023-05-06T08:11:25.490Z,16.90
2023-05-06T08:13:53.498Z,16.80
2023-05-06T08:16:24.599Z,16.70
2023-05-06T08:18:54.845Z,16.90
2023-05-06T08:21:22.921Z,16.60
2023-05-06T08:23:50.967Z,16.40
2023-05-06T08:26:19.459Z,16.30
2023-05-06T08:28:47.482Z,16.40
2023-05-06T08:31:15.612Z,16.20
2023-05-06T08:33:43.615Z,16.60
2023-05-06T08:36:13.109Z,16.80
2023-05-06T08:38:41.308Z,17.10
2023-05-06T08:41:10.623Z,16.90
2023-05-06T08:43:43.348Z,17.10
2023-05-06T08:46:11.561Z,17.20
2023-05-06T08:48:40.272Z,17.60
2023-05-06T08:51:09.077Z,18.20
2023-05-06T08:53:41.149Z,18.80
2023-05-06T08:56:10.517Z,19.10
2023-05-06T08:58:39.847Z,19.20
2023-05-06T09:01:08.399Z,19.40
2023-05-06T09:03:36.489Z,19.50
2023-05-06T09:06:06.869Z,19.60
2023-05-06T09:08:36.186Z,20.10
2023-05-06T09:11:21.241Z,20.70
2023-05-06T09:13:49.281Z,21.60
2023-05-06T09:16:32.261Z,21.30
2023-05-06T09:19:00.475Z,20.90
2023-05-06T09:21:35.029Z,20.40
2023-05-06T09:24:03.899Z,20.20
2023-05-06T09:26:34.402Z,19.70
2023-05-06T09:29:03.305Z,19.20
2023-05-06T09:31:32.168Z,19.40
2023-05-06T09:34:01.654Z,19.40
2023-05-06T09:36:29.792Z,19.70
2023-05-06T09:38:58.074Z,20.10
2023-05-06T09:41:26.725Z,20.10
2023-05-06T09:43:59.143Z,20.00
2023-05-06T09:46:28.321Z,20.20
2023-05-06T09:48:58.194Z,21.00
2023-05-06T09:51:28.774Z,20.90
2023-05-06T09:53:58.672Z,20.80
2023-05-06T09:56:27.084Z,20.80
2023-05-06T09:59:01.538Z,21.00
2023-05-06T10:01:36.761Z,20.70
2023-05-06T10:04:10.340Z,21.00
2023-05-06T10:06:40.788Z,20.50
2023-05-06T10:09:09.657Z,20.30
2023-05-06T10:11:37.862Z,20.10
2023-05-06T10:14:08.338Z,19.80
2023-05-06T10:16:37.784Z,20.10
2023-05-06T10:19:09.380Z,20.80
2023-05-06T10:21:40.537Z,21.30
2023-05-06T10:24:12.538Z,21.70
2023-05-06T10:26:41.982Z,22.70
2023-05-06T10:29:12.391Z,23.50
2023-05-06T10:31:46.263Z,24.90
2023-05-06T10:34:14.584Z,25.80
2023-05-06T10:36:45.453Z,26.50
2023-05-06T10:39:14.717Z,26.80
2023-05-06T10:41:43.688Z,26.10
2023-05-06T10:44:14.102Z,25.70
2023-05-06T10:47:01.792Z,26.90
2023-05-06T10:49:29.926Z,26.40
2023-05-06T10:52:22.107Z,26.90
2023-05-06T10:54:51.482Z,26.60
2023-05-06T10:57:20.900Z,26.00
2023-05-06T10:59:50.541Z,25.20
2023-05-06T11:02:21.090Z,25.20
2023-05-06T11:04:53.390Z,25.40
2023-05-06T11:07:25.442Z,25.70
2023-05-06T11:09:57.883Z,26.70
2023-05-06T11:12:47.461Z,26.80
2023-05-06T11:15:41.360Z,25.80
2023-05-06T11:18:45.371Z,25.50
2023-05-06T11:21:41.590Z,25.10
2023-05-06T11:24:14.338Z,25.70
2023-05-06T11:26:44.365Z,25.10
2023-05-06T11:29:12.445Z,25.10
2023-05-06T11:31:43.897Z,23.30
2023-05-06T11:34:15.468Z,23.30
2023-05-06T11:37:02.288Z,23.00
2023-05-06T11:39:34.929Z,22.20
2023-05-06T11:42:07.011Z,22.00
2023-05-06T11:44:37.691Z,22.40
2023-05-06T11:47:08.194Z,21.80
2023-05-06T11:49:43.245Z,21.80
2023-05-06T11:52:12.849Z,21.40
2023-05-06T11:54:42.161Z,20.60
2023-05-06T11:57:11.066Z,20.70
2023-05-06T11:59:40.619Z,20.80
2023-05-06T12:02:13.351Z,21.10
2023-05-06T12:04:43.198Z,21.60
2023-05-06T12:07:13.189Z,22.00
2023-05-06T12:09:44.352Z,22.10
2023-05-06T12:12:13.453Z,22.20
2023-05-06T12:14:42.361Z,21.90
2023-05-06T12:17:12.212Z,21.70
2023-05-06T12:19:40.659Z,21.90
2023-05-06T12:22:19.432Z,22.30
2023-05-06T12:24:47.861Z,22.30
2023-05-06T12:27:16.107Z,22.10
2023-05-06T12:29:53.936Z,22.30
2023-05-06T12:32:23.729Z,22.70
2023-05-06T12:34:52.501Z,23.00
2023-05-06T12:37:31.716Z,22.70
2023-05-06T12:39:59.923Z,22.30
2023-05-06T12:42:28.253Z,22.40
2023-05-06T12:44:57.453Z,22.00
2023-05-06T12:47:27.287Z,22.20
2023-05-06T12:49:58.334Z,22.10
2023-05-06T12:52:30.342Z,22.30
2023-05-06T12:54:58.652Z,22.30
2023-05-06T12:57:27.018Z,22.70
2023-05-06T12:59:56.357Z,23.20
2023-05-06T13:02:26.057Z,23.40
2023-05-06T13:04:54.263Z,23.60
2023-05-06T13:07:22.510Z,23.10
2023-05-06T13:09:50.922Z,22.70
2023-05-06T13:12:19.007Z,22.80
2023-05-06T13:14:46.970Z,22.40
2023-05-06T13:17:15.722Z,22.40
2023-05-06T13:19:45.456Z,22.50
2023-05-06T13:22:13.788Z,21.90
2023-05-06T13:24:41.862Z,21.90
2023-05-06T13:27:09.958Z,22.20
2023-05-06T13:29:38.017Z,21.80
2023-05-06T13:32:08.626Z,21.60
2023-05-06T13:34:37.218Z,21.40
2023-05-06T13:37:06.927Z,21.10
2023-05-06T13:39:34.983Z,20.90
2023-05-06T13:42:05.539Z,21.00
2023-05-06T13:44:35.816Z,21.50
2023-05-06T13:47:04.017Z,22.10
2023-05-06T13:49:32.013Z,22.20
2023-05-06T13:52:00.046Z,22.40
2023-05-06T13:54:29.534Z,22.10
2023-05-06T13:56:58.281Z,22.00
2023-05-06T13:59:27.348Z,22.30
2023-05-06T14:01:56.293Z,22.40
2023-05-06T14:04:24.424Z,22.30
2023-05-06T14:06:52.683Z,22.50
2023-05-06T14:09:20.971Z,22.40
2023-05-06T14:11:50.433Z,22.60
2023-05-06T14:14:18.442Z,22.40
2023-05-06T14:16:46.540Z,22.40
2023-05-06T14:19:14.555Z,22.60
2023-05-06T14:21:42.640Z,23.00
2023-05-06T14:24:12.465Z,23.00
2023-05-06T14:26:42.266Z,23.20
2023-05-06T14:29:11.829Z,23.30
2023-05-06T14:31:39.873Z,23.40
2023-05-06T14:34:08.007Z,23.20
2023-05-06T14:36:36.047Z,22.60
2023-05-06T14:39:04.321Z,22.40
2023-05-06T14:41:32.301Z,22.10
2023-05-06T14:44:00.295Z,21.80
2023-05-06T14:46:29.883Z,21.50
2023-05-06T14:48:58.211Z,21.20
2023-05-06T14:51:26.232Z,21.10
2023-05-06T14:53:54.318Z,21.00
2023-05-06T14:56:22.419Z,21.00
2023-05-06T14:58:50.480Z,21.30
2023-05-06T15:01:18.603Z,21.20
2023-05-06T15:03:48.238Z,21.10
2023-05-06T15:06:16.337Z,20.90
2023-05-06T15:08:44.461Z,20.90
2023-05-06T15:11:12.662Z,21.00
2023-05-06T15:13:40.663Z,21.30
2023-05-06T15:16:11.198Z,21.10
2023-05-06T15:18:41.862Z,21.10
2023-05-06T15:21:13.313Z,21.30
2023-05-06T15:23:41.415Z,21.20
2023-05-06T15:26:09.551Z,20.90
2023-05-06T15:28:38.093Z,20.80
2023-05-06T15:31:06.283Z,20.40
2023-05-06T15:33:35.173Z,20.10
2023-05-06T15:36:03.640Z,20.10
2023-05-06T15:39:00.652Z,20.20
2023-05-06T15:41:32.287Z,20.30
2023-05-06T15:44:02.217Z,20.40
2023-05-06T15:46:32.361Z,20.40
2023-05-06T15:51:31.661Z,20.40
2023-05-06T15:54:01.095Z,20.60
2023-05-06T15:56:35.096Z,20.90
2023-05-06T15:59:08.883Z,20.60
2023-05-06T16:02:16.617Z,20.60
2023-05-06T16:04:25.753Z,20.60
2023-05-06T16:06:53.970Z,20.70
2023-05-06T16:09:23.464Z,20.80
2023-05-06T16:11:51.542Z,20.30
2023-05-06T16:14:20.227Z,20.40
2023-05-06T16:16:48.257Z,20.50
2023-05-06T16:19:16.416Z,20.60
2023-05-06T16:21:44.864Z,20.60
2023-05-06T16:24:12.938Z,20.60
2023-05-06T16:26:42.590Z,20.60
2023-05-06T16:29:10.739Z,20.60
2023-05-06T16:31:39.303Z,20.40
2023-05-06T16:34:07.444Z,20.30
2023-05-06T16:36:35.710Z,20.20
2023-05-06T16:39:03.715Z,19.90
2023-05-06T16:41:31.767Z,19.90
2023-05-06T16:44:01.769Z,19.70
2023-05-06T16:46:30.050Z,19.60
2023-05-06T16:48:58.420Z,19.50
2023-05-06T16:51:26.638Z,19.40
2023-05-06T16:53:54.766Z,19.40
2023-05-06T16:56:22.832Z,19.20
2023-05-06T16:58:51.029Z,19.10
2023-05-06T17:01:21.387Z,19.10
2023-05-06T17:03:49.636Z,19.10
2023-05-06T17:06:17.824Z,19.10
2023-05-06T17:08:45.859Z,19.10
2023-05-06T17:11:14.164Z,19.00
2023-05-06T17:13:42.184Z,19.00
2023-05-06T17:16:10.354Z,18.90
2023-05-06T17:18:40.063Z,18.70
2023-05-06T17:21:09.120Z,18.70
2023-05-06T17:23:38.142Z,18.70
2023-05-06T17:28:55.935Z,18.50
2023-05-06T17:31:24.009Z,18.30
2023-05-06T17:33:53.507Z,18.20
2023-05-06T17:36:22.199Z,18.10
2023-05-06T17:38:50.916Z,18.00
2023-05-06T17:41:18.998Z,17.90
2023-05-06T17:43:47.771Z,17.80
2023-05-06T17:46:18.144Z,17.80
2023-05-06T17:48:47.373Z,17.70
2023-05-06T17:51:16.927Z,17.60
2023-05-06T17:53:44.971Z,17.50
2023-05-06T17:56:13.010Z,17.40
2023-05-06T17:58:41.094Z,17.30
2023-05-06T18:01:09.352Z,17.30
2023-05-06T18:03:37.537Z,17.20
2023-05-06T18:06:05.559Z,17.10
2023-05-06T18:08:35.020Z,17.00
2023-05-06T18:11:03.047Z,16.90
2023-05-06T18:13:33.157Z,16.90
2023-05-06T18:16:01.488Z,16.80
2023-05-06T18:18:29.748Z,16.70
2023-05-06T18:20:57.687Z,16.60
2023-05-06T18:23:26.360Z,16.50
2023-05-06T18:25:55.808Z,16.40
2023-05-06T18:28:24.110Z,16.40
2023-05-06T18:30:52.086Z,16.20
2023-05-06T18:33:20.341Z,16.10
2023-05-06T18:35:48.428Z,16.00
2023-05-06T18:38:16.466Z,15.90
2023-05-06T18:40:46.307Z,15.80
2023-05-06T18:43:15.686Z,15.80
2023-05-06T18:45:43.916Z,15.70
2023-05-06T18:48:12.174Z,15.60
2023-05-06T18:50:40.380Z,15.60
2023-05-06T18:53:08.624Z,15.50
2023-05-06T18:55:37.060Z,15.40
2023-05-06T18:58:06.428Z,15.30
2023-05-06T19:00:36.005Z,15.20
2023-05-06T19:03:04.099Z,15.10
2023-05-06T19:05:32.255Z,15.00
2023-05-06T19:08:00.304Z,14.90
2023-05-06T19:10:28.462Z,14.80
2023-05-06T19:12:56.641Z,14.70
2023-05-06T19:15:24.652Z,14.70
2023-05-06T19:17:54.118Z,14.60
2023-05-06T19:20:22.439Z,14.50
2023-05-06T19:22:50.450Z,14.50
2023-05-06T19:25:19.071Z,14.50
2023-05-06T19:27:47.095Z,14.40
2023-05-06T19:30:15.383Z,14.30
2023-05-06T19:32:44.490Z,14.30
2023-05-06T19:35:14.641Z,14.30
2023-05-06T19:37:42.762Z,14.20
2023-05-06T19:40:11.704Z,14.10
2023-05-06T19:42:39.750Z,14.10
2023-05-06T19:45:08.970Z,14.00
2023-05-06T19:47:37.319Z,14.00
2023-05-06T19:50:06.471Z,13.90
2023-05-06T19:52:36.051Z,13.90
2023-05-06T19:55:04.272Z,13.80
2023-05-06T19:57:33.633Z,13.80
2023-05-06T20:00:05.442Z,13.70
2023-05-06T20:02:33.859Z,13.70
2023-05-06T20:05:02.052Z,13.60
2023-05-06T20:07:30.138Z,13.60
2023-05-06T20:09:59.762Z,13.50
2023-05-06T20:12:28.247Z,13.60
2023-05-06T20:14:57.166Z,13.60
2023-05-06T20:17:25.240Z,13.50
2023-05-06T20:19:57.234Z,13.50
2023-05-06T20:22:25.689Z,13.50
2023-05-06T20:24:54.064Z,13.40
2023-05-06T20:27:23.620Z,13.40
2023-05-06T20:29:51.711Z,13.30
2023-05-06T20:32:19.833Z,13.30
2023-05-06T20:34:47.868Z,13.30
2023-05-06T20:37:16.118Z,13.30
2023-05-06T20:39:44.905Z,13.30
2023-05-06T20:42:12.910Z,13.20
2023-05-06T20:44:42.432Z,13.20
2023-05-06T20:47:12.484Z,13.20
2023-05-06T20:49:40.642Z,13.20
2023-05-06T20:52:11.287Z,13.10
2023-05-06T20:54:39.379Z,13.10
2023-05-06T20:57:07.551Z,13.00
2023-05-06T20:59:35.999Z,13.00
2023-05-06T21:02:05.772Z,13.00
2023-05-06T21:04:34.025Z,12.90
2023-05-06T21:07:02.123Z,12.80
2023-05-06T21:09:30.566Z,12.80
2023-05-06T21:11:59.243Z,12.80
2023-05-06T21:14:27.889Z,12.80
2023-05-06T21:16:55.967Z,12.70
2023-05-06T21:19:25.350Z,12.60
2023-05-06T21:21:53.464Z,12.60
2023-05-06T21:24:21.548Z,12.60
2023-05-06T21:26:51.266Z,12.50
2023-05-06T21:29:19.368Z,12.50
2023-05-06T21:31:47.528Z,12.50
2023-05-06T21:34:15.755Z,12.50
2023-05-06T21:36:45.239Z,12.60
2023-05-06T21:39:15.055Z,12.50
2023-05-06T21:41:43.262Z,12.50
2023-05-06T21:44:11.392Z,12.50
2023-05-06T21:46:39.481Z,12.50
2023-05-06T21:49:07.517Z,12.40
2023-05-06T21:51:37.004Z,12.40
2023-05-06T21:54:06.462Z,12.30
2023-05-06T21:56:34.478Z,12.30
2023-05-06T21:59:02.458Z,12.20
2023-05-06T22:01:30.796Z,12.20
2023-05-06T22:03:58.996Z,12.20
2023-05-06T22:06:29.254Z,12.10
2023-05-06T22:08:57.800Z,12.10
2023-05-06T22:11:28.168Z,12.10
2023-05-06T22:13:56.164Z,12.00
2023-05-06T22:16:24.449Z,12.00
2023-05-06T22:18:53.272Z,12.00
2023-05-06T22:21:21.410Z,12.00
2023-05-06T22:23:49.541Z,11.90
2023-05-06T22:26:17.668Z,12.00
2023-05-06T22:28:47.155Z,11.90
2023-05-06T22:31:16.011Z,11.90
2023-05-06T22:33:44.267Z,11.90
2023-05-06T22:36:12.514Z,11.90
2023-05-06T22:38:40.705Z,11.90
2023-05-06T22:41:08.928Z,11.80
2023-05-06T22:43:37.075Z,11.80
2023-05-06T22:46:07.169Z,11.80
2023-05-06T22:48:35.428Z,11.80
2023-05-06T22:51:06.032Z,11.80
2023-05-06T22:53:34.207Z,11.80
2023-05-06T22:56:02.342Z,11.80
2023-05-06T22:58:30.878Z,11.80
2023-05-06T23:00:59.328Z,11.80
2023-05-06T23:03:29.189Z,11.80
2023-05-06T23:05:57.778Z,11.80
2023-05-06T23:08:25.897Z,11.70
2023-05-06T23:10:54.242Z,11.70
2023-05-06T23:13:22.755Z,11.70
2023-05-06T23:15:50.808Z,11.70
2023-05-06T23:18:19.205Z,11.60
2023-05-06T23:20:48.641Z,11.60
2023-05-06T23:23:16.808Z,11.60
2023-05-06T23:25:45.020Z,11.60
2023-05-06T23:28:13.219Z,11.60
2023-05-06T23:30:41.422Z,11.50
2023-05-06T23:33:09.520Z,11.50
2023-05-06T23:35:37.532Z,11.50
2023-05-06T23:38:06.873Z,11.50
2023-05-06T23:40:34.901Z,11.50
2023-05-06T23:43:02.956Z,11.40
2023-05-06T23:45:31.079Z,11.40
2023-05-06T23:47:59.181Z,11.40
2023-05-06T23:50:27.453Z,11.30
2023-05-06T23:52:55.832Z,11.30
2023-05-06T23:55:30.116Z,11.30
2023-05-06T23:57:58.329Z,11.20
